Time;durP1;ratioP1;P1;durP2;ratioP2;P2;SDS_P1;SDS_P2;PMS_P1;PMS_P2;Temp;Humidity;BMP_temperature;BMP_pressure;BME280_temperature;BME280_humidity;BME280_pressure;Samples;Min_cycle;Max_cycle;Signal;HPM_P1;HPM_P2
2021/01/15 00:00:01;;;;;;;1.98;1.00;;;;;;;;;;5291885;27;20460;-90
2021/01/15 00:02:32;;;;;;;2.28;1.12;;;;;;;;;;5311456;27;20061;-92
2021/01/15 00:05:01;;;;;;;2.05;1.00;;;;;;;;;;5313711;27;20511;-88
2021/01/15 00:07:32;;;;;;;4.90;1.30;;;;;;;;;;5293992;27;20039;-87
2021/01/15 00:10:00;;;;;;;4.40;1.25;;;;;;;;;;5292625;27;20033;-88
2021/01/15 00:12:29;;;;;;;2.42;1.02;;;;;;;;;;5299234;27;20025;-87
2021/01/15 00:14:57;;;;;;;4.15;1.60;;;;;;;;;;5296622;27;20048;-90
2021/01/15 00:17:25;;;;;;;4.47;1.10;;;;;;;;;;5313970;27;20034;-87
2021/01/15 00:19:53;;;;;;;4.87;1.25;;;;;;;;;;5290098;27;20055;-91
2021/01/15 00:22:21;;;;;;;5.90;1.30;;;;;;;;;;5292065;27;20424;-87
2021/01/15 00:24:50;;;;;;;3.20;1.25;;;;;;;;;;5316677;27;20028;-92
2021/01/15 00:27:18;;;;;;;3.28;1.00;;;;;;;;;;5316324;27;20043;-91
2021/01/15 00:29:46;;;;;;;2.55;1.10;;;;;;;;;;5296515;27;20451;-90
2021/01/15 00:32:14;;;;;;;3.28;1.15;;;;;;;;;;5313030;27;20364;-91
2021/01/15 00:34:43;;;;;;;4.35;1.33;;;;;;;;;;5313352;27;20053;-89
2021/01/15 00:37:11;;;;;;;4.78;1.55;;;;;;;;;;5314186;27;20533;-92
2021/01/15 00:39:39;;;;;;;5.68;1.20;;;;;;;;;;5312787;27;20506;-88
2021/01/15 00:42:10;;;;;;;9.73;1.42;;;;;;;;;;5293662;27;20405;-92
2021/01/15 00:44:38;;;;;;;2.75;1.00;;;;;;;;;;5272751;27;20047;-89
2021/01/15 00:47:07;;;;;;;8.05;1.15;;;;;;;;;;5292867;27;20068;-89
2021/01/15 00:49:35;;;;;;;2.78;1.17;;;;;;;;;;5295228;27;20050;-89
2021/01/15 00:52:03;;;;;;;6.87;1.20;;;;;;;;;;5295827;26;20026;-91
2021/01/15 00:54:32;;;;;;;2.72;1.00;;;;;;;;;;5293880;27;20044;-89
2021/01/15 00:57:00;;;;;;;4.80;1.23;;;;;;;;;;5288467;27;20080;-88
2021/01/15 00:59:28;;;;;;;6.25;1.55;;;;;;;;;;5272482;27;20037;-88
2021/01/15 01:01:57;;;;;;;2.85;1.40;;;;;;;;;;5289349;27;20028;-87
2021/01/15 01:04:27;;;;;;;5.62;1.40;;;;;;;;;;5270579;27;20078;-90
2021/01/15 01:06:55;;;;;;;3.90;1.35;;;;;;;;;;5286845;27;20075;-89
2021/01/15 01:09:24;;;;;;;3.15;0.95;;;;;;;;;;5286838;27;20381;-85
2021/01/15 01:11:57;;;;;;;4.45;1.40;;;;;;;;;;5308060;27;20039;-90
2021/01/15 01:14:26;;;;;;;3.03;1.30;;;;;;;;;;5288391;27;20078;-90
2021/01/15 01:16:54;;;;;;;3.40;1.30;;;;;;;;;;5291048;27;20379;-92
2021/01/15 01:19:22;;;;;;;1.27;0.77;;;;;;;;;;5287221;27;20057;-90
2021/01/15 01:21:51;;;;;;;1.90;1.02;;;;;;;;;;5288699;27;20360;-90
2021/01/15 01:24:19;;;;;;;3.97;1.48;;;;;;;;;;5289727;27;20036;-90
2021/01/15 01:26:47;;;;;;;2.50;1.27;;;;;;;;;;5287309;27;20052;-87
2021/01/15 01:29:16;;;;;;;3.67;1.25;;;;;;;;;;5308978;26;20056;-90
2021/01/15 01:31:44;;;;;;;2.12;1.02;;;;;;;;;;5286312;27;20055;-90
2021/01/15 01:34:12;;;;;;;1.83;1.15;;;;;;;;;;5273197;27;20024;-86
2021/01/15 01:36:41;;;;;;;4.55;1.23;;;;;;;;;;5269375;27;20048;-88
2021/01/15 01:39:09;;;;;;;4.15;1.00;;;;;;;;;;5287330;27;20064;-89
2021/01/15 01:41:37;;;;;;;4.07;0.98;;;;;;;;;;5282605;27;20364;-89
2021/01/15 01:44:06;;;;;;;4.43;1.20;;;;;;;;;;5303156;27;20522;-87
2021/01/15 01:46:34;;;;;;;2.55;1.10;;;;;;;;;;5266905;27;20061;-89
2021/01/15 01:49:03;;;;;;;5.85;1.35;;;;;;;;;;5303634;27;20052;-87
2021/01/15 01:51:31;;;;;;;3.37;1.30;;;;;;;;;;5288598;27;20056;-90
2021/01/15 01:54:00;;;;;;;2.08;1.05;;;;;;;;;;5272856;27;20021;-88
2021/01/15 01:56:29;;;;;;;5.55;1.35;;;;;;;;;;5286593;27;20463;-91
2021/01/15 01:58:58;;;;;;;2.83;1.20;;;;;;;;;;5286913;27;20064;-91
2021/01/15 02:01:26;;;;;;;2.40;1.10;;;;;;;;;;5312354;27;20030;-89
2021/01/15 02:04:13;;;;;;;3.58;1.08;;;;;;;;;;5275067;27;20056;-89
2021/01/15 02:06:41;;;;;;;3.83;1.10;;;;;;;;;;5284819;27;20052;-89
2021/01/15 02:09:09;;;;;;;3.28;1.12;;;;;;;;;;5286527;27;20063;-88
2021/01/15 02:11:41;;;;;;;4.10;0.85;;;;;;;;;;5294147;27;20435;-89
2021/01/15 02:14:33;;;;;;;3.95;1.27;;;;;;;;;;5275532;27;20025;-89
2021/01/15 02:17:02;;;;;;;3.10;1.10;;;;;;;;;;5312475;26;20412;-90
2021/01/15 02:19:37;;;;;;;2.67;0.98;;;;;;;;;;5289556;27;20030;-92
2021/01/15 02:22:30;;;;;;;1.50;1.02;;;;;;;;;;5290296;27;20048;-88
2021/01/15 02:24:59;;;;;;;2.90;1.23;;;;;;;;;;5272337;27;20039;-89
2021/01/15 02:27:31;;;;;;;3.80;1.30;;;;;;;;;;5268627;27;20426;-87
2021/01/15 02:30:08;;;;;;;3.00;1.30;;;;;;;;;;5273554;27;20035;-90
2021/01/15 02:32:55;;;;;;;6.28;1.40;;;;;;;;;;5267704;27;20061;-89
2021/01/15 02:35:30;;;;;;;2.85;1.10;;;;;;;;;;5291828;27;20029;-88
2021/01/15 02:38:11;;;;;;;3.78;1.20;;;;;;;;;;5274836;27;20028;-91
2021/01/15 02:40:42;;;;;;;4.53;1.30;;;;;;;;;;5275259;27;20065;-88
2021/01/15 02:43:10;;;;;;;4.93;1.50;;;;;;;;;;5269251;27;20589;-89
2021/01/15 02:45:38;;;;;;;2.17;1.00;;;;;;;;;;5308468;27;20029;-90
2021/01/15 02:48:10;;;;;;;4.65;1.37;;;;;;;;;;5276013;27;20028;-90
2021/01/15 02:50:38;;;;;;;4.62;1.50;;;;;;;;;;5317011;27;20034;-91
2021/01/15 02:53:07;;;;;;;2.40;1.50;;;;;;;;;;5312283;27;20034;-92
2021/01/15 02:55:35;;;;;;;3.85;1.23;;;;;;;;;;5299500;27;20412;-90
2021/01/15 02:58:03;;;;;;;3.95;1.92;;;;;;;;;;5296029;27;20029;-90
2021/01/15 03:00:32;;;;;;;1.70;1.23;;;;;;;;;;5281650;27;20056;-90
2021/01/15 03:03:08;;;;;;;3.08;1.25;;;;;;;;;;5290244;27;20059;-90
2021/01/15 03:05:44;;;;;;;2.20;1.55;;;;;;;;;;5309075;26;20052;-91
2021/01/15 03:08:15;;;;;;;4.05;1.25;;;;;;;;;;5316539;27;20009;-87
2021/01/15 03:10:44;;;;;;;1.45;1.05;;;;;;;;;;5299102;27;20033;-96
2021/01/15 03:13:12;;;;;;;5.95;1.50;;;;;;;;;;5264539;27;20029;-96
2021/01/15 03:15:46;;;;;;;4.82;1.48;;;;;;;;;;5283612;27;20058;-95
2021/01/15 03:18:15;;;;;;;2.15;1.25;;;;;;;;;;5283159;27;20025;-95
2021/01/15 03:20:48;;;;;;;2.53;1.62;;;;;;;;;;5267272;27;20051;-96
2021/01/15 03:23:21;;;;;;;5.15;1.50;;;;;;;;;;5282057;27;20346;-95
2021/01/15 03:25:50;;;;;;;3.90;1.33;;;;;;;;;;5282479;27;20060;-96
2021/01/15 03:28:20;;;;;;;2.37;1.45;;;;;;;;;;5267432;27;20058;-95
2021/01/15 03:30:56;;;;;;;6.40;1.60;;;;;;;;;;5285948;27;20025;-95
2021/01/15 03:33:27;;;;;;;3.53;1.80;;;;;;;;;;5284040;27;20055;-94
2021/01/15 03:36:02;;;;;;;5.00;1.85;;;;;;;;;;5284625;27;20414;-96
2021/01/15 03:38:30;;;;;;;4.40;2.10;;;;;;;;;;5286055;27;20278;-96
2021/01/15 03:41:13;;;;;;;3.58;1.40;;;;;;;;;;5284405;27;20041;-96
2021/01/15 03:43:46;;;;;;;3.58;1.48;;;;;;;;;;5265581;27;20029;-96
2021/01/15 03:46:27;;;;;;;3.17;1.12;;;;;;;;;;5286817;27;20054;-96
2021/01/15 03:48:57;;;;;;;1.80;1.02;;;;;;;;;;5286567;27;20035;-96
2021/01/15 03:51:35;;;;;;;4.32;1.30;;;;;;;;;;5286720;27;20258;-96
2021/01/15 03:54:05;;;;;;;2.65;1.35;;;;;;;;;;5285482;27;20021;-96
2021/01/15 03:56:37;;;;;;;4.12;1.50;;;;;;;;;;5289079;27;20055;-96
2021/01/15 03:59:08;;;;;;;3.62;1.30;;;;;;;;;;5305547;26;20029;-95
2021/01/15 04:01:40;;;;;;;4.37;1.60;;;;;;;;;;5306373;26;20070;-96
2021/01/15 04:04:14;;;;;;;5.35;1.35;;;;;;;;;;5298292;27;20080;-96
2021/01/15 04:06:46;;;;;;;4.97;1.50;;;;;;;;;;5293636;27;20013;-95
2021/01/15 04:09:26;;;;;;;8.52;1.73;;;;;;;;;;5291580;27;20025;-96
2021/01/15 04:11:54;;;;;;;2.30;1.20;;;;;;;;;;5286018;27;20029;-95
2021/01/15 04:14:29;;;;;;;;;;;;;;;;;;5287081;27;20123;-96
2021/01/15 04:17:15;;;;;;;3.55;1.48;;;;;;;;;;5278390;27;19968;-96
2021/01/15 04:19:48;;;;;;;4.82;1.65;;;;;;;;;;5267030;27;20064;-95
2021/01/15 04:22:23;;;;;;;7.22;1.85;;;;;;;;;;5285928;27;20039;-96
2021/01/15 04:24:56;;;;;;;4.65;1.70;;;;;;;;;;5287267;27;20350;-96
2021/01/15 04:27:30;;;;;;;3.87;1.73;;;;;;;;;;5285737;27;20216;-96
2021/01/15 04:30:06;;;;;;;4.10;1.50;;;;;;;;;;5283301;27;20019;-96
2021/01/15 04:32:35;;;;;;;5.95;1.62;;;;;;;;;;5265562;27;20031;-96
2021/01/15 04:35:06;;;;;;;4.70;1.92;;;;;;;;;;5285985;27;20033;-96
2021/01/15 04:37:37;;;;;;;3.92;1.45;;;;;;;;;;5289088;27;20040;-96
2021/01/15 04:40:11;;;;;;;4.85;1.50;;;;;;;;;;5288225;27;20045;-96
2021/01/15 04:42:55;;;;;;;3.08;1.30;;;;;;;;;;5312920;27;20033;-96
2021/01/15 04:45:45;;;;;;;5.10;1.85;;;;;;;;;;5298454;27;20770;-96
2021/01/15 04:48:36;;;;;;;4.05;1.83;;;14.20;99.90;;;;;;5281853;27;20031;-96
2021/01/15 04:51:18;;;;;;;4.43;1.87;;;;;;;;;;5289725;27;20043;-96
2021/01/15 04:53:58;;;;;;;5.18;1.75;;;;;;;;;;5291970;27;20457;-96
2021/01/15 04:57:13;;;;;;;;;;;;;;;;;;;;;
2021/01/15 05:00:16;;;;;;;10.75;2.00;;;14.30;99.90;;;;;;5306018;27;20067;-96
2021/01/15 05:03:06;;;;;;;4.30;1.42;;;14.40;99.90;;;;;;5298175;27;20025;-96
2021/01/15 05:06:23;;;;;;;5.00;2.08;;;14.30;99.90;;;;;;5281750;27;20042;-96
2021/01/15 05:09:00;;;;;;;2.35;1.83;;;14.60;99.90;;;;;;5295560;27;20025;-95
2021/01/15 05:12:15;;;;;;;3.92;2.10;;;14.50;99.90;;;;;;5275889;27;20043;-95
2021/01/15 05:14:50;;;;;;;3.28;2.00;;;14.80;99.90;;;;;;5292699;27;20029;-96
2021/01/15 05:17:27;;;;;;;7.60;2.95;;;14.80;99.90;;;;;;5273986;27;20033;-96
2021/01/15 05:20:14;;;;;;;3.65;2.20;;;14.60;99.90;;;;;;5311331;27;20036;-96
2021/01/15 05:22:51;;;;;;;4.87;1.87;;;14.60;99.90;;;;;;5312787;27;20072;-96
2021/01/15 05:25:31;;;;;;;3.55;2.00;;;;;;;;;;5272982;27;20013;-95
2021/01/15 05:28:09;;;;;;;4.67;1.87;;;14.50;99.90;;;;;;5323423;27;20017;-96
2021/01/15 05:31:07;;;;;;;4.25;1.77;;;14.70;99.90;;;;;;5300449;27;20153;-96
2021/01/15 05:34:15;;;;;;;5.25;2.40;;;14.60;99.90;;;;;;5303759;27;20029;-96
2021/01/15 05:37:08;;;;;;;5.25;1.77;;;14.80;99.90;;;;;;5319327;27;20092;-96
2021/01/15 05:39:55;;;;;;;6.47;2.80;;;14.40;99.90;;;;;;5262593;27;20070;-96
2021/01/15 05:43:32;;;;;;;5.12;2.30;;;14.30;99.90;;;;;;5303353;27;20028;-96
2021/01/15 05:46:31;;;;;;;6.20;2.37;;;14.50;98.10;;;;;;5315404;27;20021;-96
2021/01/15 05:49:15;;;;;;;5.95;2.03;;;14.50;96.20;;;;;;5298605;27;20061;-95
2021/01/15 05:51:53;;;;;;;4.90;2.17;;;14.00;95.30;;;;;;5301025;27;20025;-96
2021/01/15 05:54:34;;;;;;;8.98;2.25;;;14.50;96.00;;;;;;5298308;27;20068;-96
2021/01/15 05:57:23;;;;;;;4.80;1.85;;;14.40;95.40;;;;;;5298544;27;20035;-96
2021/01/15 06:00:44;;;;;;;;;;;;;;;;;;;;;
2021/01/15 06:03:22;;;;;;;8.27;2.37;;;14.80;95.50;;;;;;5317709;27;20013;-96
2021/01/15 06:06:20;;;;;;;5.45;2.05;;;14.50;95.50;;;;;;5305330;27;20036;-96
2021/01/15 06:08:56;;;;;;;7.15;2.47;;;14.80;96.20;;;;;;5299834;27;20033;-96
2021/01/15 06:11:41;;;;;;;3.03;1.85;;;14.70;96.40;;;;;;5296207;27;20057;-96
2021/01/15 06:15:22;;;;;;;;;;;;;;;;;;;;;
2021/01/15 06:19:01;;;;;;;6.47;2.25;;;14.80;96.40;;;;;;5321609;27;20044;-96
2021/01/15 06:22:12;;;;;;;6.37;2.40;;;14.60;97.20;;;;;;5321684;27;20018;-96
2021/01/15 06:25:57;;;;;;;3.90;1.87;;;14.80;98.30;;;;;;5304259;27;20028;-96
2021/01/15 06:29:14;;;;;;;7.53;2.78;;;14.60;99.00;;;;;;5319634;27;20033;-96
2021/01/15 06:32:27;;;;;;;7.85;2.60;;;14.80;99.90;;;;;;5313867;27;20029;-96
2021/01/15 06:35:43;;;;;;;6.65;2.28;;;15.30;99.90;;;;;;5305485;27;20017;-96
2021/01/15 06:39:10;;;;;;;6.40;2.65;;;15.00;99.90;;;;;;5299551;27;20029;-96
2021/01/15 06:42:30;;;;;;;7.78;2.12;;;14.60;99.90;;;;;;5291021;27;20025;-96
2021/01/15 06:45:49;;;;;;;3.97;1.80;;;14.80;99.90;;;;;;5297687;27;20021;-96
2021/01/15 06:49:45;;;;;;;6.00;2.10;;;14.80;99.90;;;;;;5314144;27;20032;-97
2021/01/15 06:52:27;;;;;;;9.02;2.00;;;14.70;99.60;;;;;;5284324;27;20379;-96
2021/01/15 06:55:16;;;;;;;11.00;2.25;;;14.60;98.80;;;;;;5297308;27;20038;-96
2021/01/15 06:57:52;;;;;;;6.15;2.10;;;14.70;98.20;;;;;;5299564;27;20089;-96
2021/01/15 07:01:17;;;;;;;5.90;1.83;;;15.00;98.30;;;;;;5282798;27;20071;-96
2021/01/15 07:04:30;;;;;;;4.28;1.73;;;14.60;97.30;;;;;;5308550;27;20053;-96
2021/01/15 07:07:39;;;;;;;4.60;1.40;;;14.40;96.30;;;;;;5296444;27;20020;-96
2021/01/15 07:11:18;;;;;;;4.47;1.50;;;14.50;96.00;;;;;;5320015;27;20002;-96
2021/01/15 07:15:16;;;;;;;2.78;1.62;;;14.40;95.40;;;;;;5304240;27;20037;-96
2021/01/15 07:18:53;;;;;;;4.53;1.30;;;14.50;93.40;;;;;;5321026;27;20063;-96
2021/01/15 07:21:38;;;;;;;3.40;1.15;;;14.90;93.10;;;;;;5276003;27;20078;-96
2021/01/15 07:24:28;;;;;;;5.25;1.30;;;14.10;92.60;;;;;;5287379;27;20031;-96
2021/01/15 07:26:57;;;;;;;2.42;1.12;;;14.20;93.00;;;;;;5288304;27;20031;-96
2021/01/15 07:29:57;;;;;;;7.32;1.52;;;14.30;93.70;;;;;;5292610;27;20062;-96
2021/01/15 07:32:36;;;;;;;8.77;1.75;;;14.20;94.40;;;;;;5287639;27;20029;-96
2021/01/15 07:35:39;;;;;;;5.45;2.12;;;14.20;94.70;;;;;;5311721;27;20024;-96
2021/01/15 07:38:30;;;;;;;3.78;1.42;;;14.20;95.10;;;;;;5292770;27;20027;-96
2021/01/15 07:41:06;;;;;;;7.45;1.90;;;14.40;94.90;;;;;;5291153;27;20037;-96
2021/01/15 07:43:57;;;;;;;3.85;1.20;;;14.20;94.50;;;;;;5295282;27;20027;-95
2021/01/15 07:46:52;;;;;;;6.68;1.60;;;14.20;94.40;;;;;;5313967;27;20046;-96
2021/01/15 07:49:49;;;;;;;7.40;1.33;;;14.20;94.10;;;;;;5303798;27;20406;-96
2021/01/15 07:52:39;;;;;;;3.47;1.40;;;14.20;94.70;;;;;;5300855;27;20088;-96
2021/01/15 07:55:13;;;;;;;3.87;1.30;;;14.30;95.90;;;;;;5299401;27;20017;-96
2021/01/15 07:58:58;;;;;;;;;;;;;;;;;;;;;
2021/01/15 08:01:28;;;;;;;4.85;1.40;;;14.60;94.80;;;;;;5295006;27;20074;-96
2021/01/15 08:04:04;;;;;;;5.50;1.25;;;14.80;94.70;;;;;;5296712;27;20029;-96
2021/01/15 08:07:25;;;;;;;7.93;1.58;;;14.50;94.30;;;;;;5278970;27;20044;-96
2021/01/15 08:10:19;;;;;;;2.05;1.17;;;14.90;94.50;;;;;;5302854;27;20017;-96
2021/01/15 08:13:26;;;;;;;3.45;1.33;;;14.70;93.70;;;;;;5303655;27;20033;-96
2021/01/15 08:16:34;;;;;;;6.40;1.52;;;14.80;94.30;;;;;;5303263;27;20044;-96
2021/01/15 08:19:45;;;;;;;;;;;;;;;;;;;;;
2021/01/15 08:22:43;;;;;;;3.17;1.20;;;14.70;95.20;;;;;;5340346;27;19998;-96
2021/01/15 08:25:26;;;;;;;;;;;14.70;95.70;;;;;;5303523;27;20302;-96
2021/01/15 08:28:47;;;;;;;5.05;1.30;;;14.80;96.20;;;;;;5303840;27;19938;-96
2021/01/15 08:31:31;;;;;;;4.57;1.02;;;14.90;96.60;;;;;;5301808;27;20065;-96
2021/01/15 08:34:29;;;;;;;3.15;1.33;;;15.00;96.30;;;;;;5302179;27;20058;-96
2021/01/15 08:37:16;;;;;;;;;;;15.00;96.90;;;;;;5300593;27;20108;-96
2021/01/15 08:39:55;;;;;;;3.87;1.10;;;15.10;96.80;;;;;;5295275;27;19940;-96
2021/01/15 08:43:05;;;;;;;11.70;1.45;;;15.30;96.10;;;;;;5296064;27;20039;-96
2021/01/15 08:46:03;;;;;;;5.47;1.50;;;14.70;95.70;;;;;;5267783;27;20021;-96
2021/01/15 08:48:55;;;;;;;8.82;1.40;;;15.30;95.70;;;;;;5282337;27;20036;-96
2021/01/15 08:51:32;;;;;;;6.25;1.30;;;15.20;95.30;;;;;;5293188;27;20117;-96
2021/01/15 08:54:12;;;;;;;5.75;1.40;;;15.20;94.20;;;;;;5293270;27;20029;-96
2021/01/15 08:56:56;;;;;;;5.60;1.15;;;15.30;92.90;;;;;;5292813;27;20016;-96
2021/01/15 08:59:37;;;;;;;3.55;1.30;;;15.30;92.00;;;;;;5276455;27;20032;-96
2021/01/15 09:02:20;;;;;;;;;;;;;;;;;;;;;
2021/01/15 09:05:08;;;;;;;4.85;1.00;;;15.20;90.70;;;;;;5325291;27;20009;-95
2021/01/15 09:07:51;;;;;;;3.65;0.98;;;15.50;90.60;;;;;;5287374;27;20029;-96
2021/01/15 09:10:30;;;;;;;3.97;1.00;;;15.50;93.20;;;;;;5286501;27;20043;-96
2021/01/15 09:13:06;;;;;;;4.95;1.65;;;15.60;93.10;;;;;;5285197;27;20037;-96
2021/01/15 09:15:34;;;;;;;5.18;1.58;;;15.70;92.60;;;;;;5283043;27;20036;-95
2021/01/15 09:18:09;;;;;;;96.53;89.65;;;16.10;91.60;;;;;;5283374;27;20035;-96
2021/01/15 09:20:42;;;;;;;7.20;4.97;;;19.70;78.90;;;;;;5284406;27;20352;-95
2021/01/15 09:23:18;;;;;;;5.10;2.30;;;18.80;78.50;;;;;;5283585;27;20480;-95
2021/01/15 09:25:49;;;;;;;5.37;1.70;;;18.40;78.60;;;;;;5284003;27;20063;-95
2021/01/15 09:28:20;;;;;;;5.57;1.65;;;17.50;81.60;;;;;;5283025;27;20029;-93
2021/01/15 09:30:58;;;;;;;5.22;1.33;;;16.90;84.50;;;;;;5284345;27;20072;-96
2021/01/15 09:33:46;;;;;;;6.00;1.15;;;16.20;88.40;;;;;;5304540;27;20033;-95
2021/01/15 09:36:35;;;;;;;6.70;1.30;;;16.00;90.10;;;;;;5282977;27;20030;-95
2021/01/15 09:39:21;;;;;;;4.30;1.02;;;15.90;89.80;;;;;;5291722;27;20058;-93
2021/01/15 09:41:55;;;;;;;2.50;1.00;;;15.90;88.80;;;;;;5302518;27;20017;-94
2021/01/15 09:44:30;;;;;;;6.80;1.42;;;15.90;89.00;;;;;;5300846;27;20036;-95
2021/01/15 09:47:03;;;;;;;4.50;1.00;;;15.90;87.80;;;;;;5286922;27;20029;-95
2021/01/15 09:49:32;;;;;;;3.53;1.10;;;15.90;86.00;;;;;;5286842;27;20370;-96
2021/01/15 09:52:07;;;;;;;8.25;1.25;;;16.00;87.00;;;;;;5271824;27;20029;-96
2021/01/15 09:54:42;;;;;;;4.53;1.02;;;16.00;86.90;;;;;;5288597;27;20067;-96
2021/01/15 09:57:13;;;;;;;3.50;1.20;;;15.70;87.40;;;;;;5288544;27;20080;-96
2021/01/15 09:59:55;;;;;;;;;;;;;;;;;;;;;
2021/01/15 10:02:27;;;;;;;6.15;2.10;;;16.20;90.10;;;;;;5310309;27;20054;-96
2021/01/15 10:05:00;;;;;;;8.63;2.17;;;16.40;90.40;;;;;;5293829;27;20076;-96
2021/01/15 10:07:37;;;;;;;3.55;1.80;;;16.60;90.60;;;;;;5287961;27;20065;-96
2021/01/15 10:10:33;;;;;;;6.05;1.70;;;16.30;90.90;;;;;;5301220;27;20072;-96
2021/01/15 10:13:19;;;;;;;6.30;1.62;;;16.20;91.70;;;;;;5302146;27;20448;-94
2021/01/15 10:16:08;;;;;;;2.50;1.58;;;16.20;92.30;;;;;;5287952;27;20033;-96
2021/01/15 10:18:48;;;;;;;;;;;16.00;91.60;;;;;;5288165;27;20405;-95
2021/01/15 10:21:31;;;;;;;4.87;1.90;;;16.00;91.10;;;;;;5303413;27;20649;-96
2021/01/15 10:24:19;;;;;;;;;;;;;;;;;;;;;
2021/01/15 10:27:10;;;;;;;5.35;3.37;;;17.00;87.50;;;;;;5307829;27;20022;-96
2021/01/15 10:29:46;;;;;;;6.10;3.20;;;18.30;82.40;;;;;;5306325;27;20077;-95
2021/01/15 10:32:29;;;;;;;5.90;3.03;;;17.70;80.50;;;;;;5269363;27;20036;-95
2021/01/15 10:35:12;;;;;;;9.55;4.28;;;18.00;80.30;;;;;;5286857;27;20021;-96
2021/01/15 10:38:03;;;;;;;4.20;1.23;;;17.60;81.70;;;;;;5287692;27;20033;-96
2021/01/15 10:40:51;;;;;;;3.28;1.20;;;17.30;83.80;;;;;;5307788;27;20063;-96
2021/01/15 10:43:54;;;;;;;5.55;2.12;;;17.20;86.30;;;;;;5292289;27;20021;-96
2021/01/15 10:46:49;;;;;;;6.32;3.87;;;17.00;86.50;;;;;;5285611;27;20043;-95
2021/01/15 10:49:26;;;;;;;8.43;2.72;;;16.90;88.60;;;;;;5300305;27;20014;-95
2021/01/15 10:51:55;;;;;;;5.93;2.42;;;16.80;90.50;;;;;;5281269;27;20027;-95
2021/01/15 10:54:29;;;;;;;6.40;1.98;;;16.70;91.80;;;;;;5265569;27;20063;-96
2021/01/15 10:57:04;;;;;;;4.95;1.73;;;16.50;92.40;;;;;;5282007;27;20369;-95
2021/01/15 10:59:42;;;;;;;7.75;2.55;;;16.40;92.90;;;;;;5302246;27;20389;-96
2021/01/15 11:02:15;;;;;;;4.30;1.87;;;16.40;93.50;;;;;;5278486;27;20029;-94
2021/01/15 11:04:49;;;;;;;4.45;2.50;;;16.50;93.00;;;;;;5287585;27;20029;-95
2021/01/15 11:07:24;;;;;;;6.90;1.95;;;16.60;91.10;;;;;;5286107;27;20020;-95
2021/01/15 11:09:58;;;;;;;5.70;2.10;;;16.80;90.60;;;;;;5285679;27;20062;-94
2021/01/15 11:12:26;;;;;;;5.05;1.77;;;17.40;90.00;;;;;;5265007;27;20036;-96
2021/01/15 11:15:10;;;;;;;6.05;3.30;;;17.30;87.00;;;;;;5286907;27;20025;-96
2021/01/15 11:17:51;;;;;;;4.72;2.70;;;17.30;85.60;;;;;;5288435;27;20024;-96
2021/01/15 11:20:27;;;;;;;9.43;4.90;;;17.60;84.00;;;;;;5305610;27;20054;-96
2021/01/15 11:23:01;;;;;;;8.90;6.70;;;17.50;83.10;;;;;;5284595;27;20032;-95
2021/01/15 11:25:29;;;;;;;9.38;8.57;;;17.80;81.40;;;;;;5282842;27;20055;-96
2021/01/15 11:28:02;;;;;;;12.60;11.65;;;17.90;80.70;;;;;;5282589;27;20051;-95
2021/01/15 11:30:30;;;;;;;4.53;4.22;;;18.00;79.60;;;;;;5284321;27;20029;-95
2021/01/15 11:33:07;;;;;;;6.12;5.20;;;18.50;78.40;;;;;;5281579;27;20673;-96
2021/01/15 11:35:49;;;;;;;20.80;19.40;;;19.70;76.80;;;;;;5284783;27;20021;-96
2021/01/15 11:38:21;;;;;;;10.65;9.77;;;20.10;71.70;;;;;;5282460;27;20046;-96
2021/01/15 11:40:50;;;;;;;17.15;15.98;;;19.60;73.20;;;;;;5282078;27;20025;-96
2021/01/15 11:43:18;;;;;;;18.77;17.60;;;19.80;72.40;;;;;;5283176;27;20030;-96
2021/01/15 11:45:48;;;;;;;25.40;24.08;;;19.80;71.50;;;;;;5297874;27;20033;-95
2021/01/15 11:48:19;;;;;;;22.70;21.20;;;19.60;72.70;;;;;;5300574;27;20048;-96
2021/01/15 11:51:00;;;;;;;12.48;11.43;;;20.30;70.40;;;;;;5282375;27;20456;-96
2021/01/15 11:53:40;;;;;;;8.18;7.47;;;20.80;69.10;;;;;;5279549;27;20065;-96
2021/01/15 11:56:11;;;;;;;16.67;15.50;;;20.20;69.70;;;;;;5283698;27;20037;-96
2021/01/15 11:58:39;;;;;;;7.15;6.03;;;20.10;71.90;;;;;;5283392;27;20033;-96
2021/01/15 12:01:12;;;;;;;9.10;8.35;;;19.30;72.40;;;;;;5282714;27;20035;-95
2021/01/15 12:03:41;;;;;;;8.00;5.12;;;19.60;74.30;;;;;;5282686;27;20445;-96
2021/01/15 12:06:39;;;;;;;9.70;2.20;;;19.10;75.30;;;;;;5283103;27;20035;-96
2021/01/15 12:09:16;;;;;;;4.70;2.40;;;19.00;77.60;;;;;;5277710;27;20033;-96
2021/01/15 12:11:47;;;;;;;6.90;6.18;;;19.20;78.70;;;;;;5274187;27;20430;-95
2021/01/15 12:14:15;;;;;;;7.32;5.75;;;18.70;78.60;;;;;;5282429;27;20025;-93
2021/01/15 12:16:43;;;;;;;4.28;3.42;;;18.60;80.10;;;;;;5300689;27;20037;-96
2021/01/15 12:19:16;;;;;;;6.32;5.70;;;18.60;81.10;;;;;;5283971;27;20098;-96
2021/01/15 12:21:54;;;;;;;8.82;3.33;;;18.70;79.90;;;;;;5282238;27;20051;-96
2021/01/15 12:24:39;;;;;;;7.68;2.75;;;18.60;79.30;;;;;;5294768;27;20055;-96
2021/01/15 12:27:59;;;;;;;5.25;2.92;;;18.40;82.00;;;;;;5299922;27;20064;-96
2021/01/15 12:30:51;;;;;;;7.68;5.65;;;18.40;84.30;;;;;;5291997;27;20088;-96
2021/01/15 12:33:47;;;;;;;;;;;;;;;;;;;;;
2021/01/15 12:36:17;;;;;;;8.25;7.45;;;18.90;83.60;;;;;;5307279;27;20438;-96
2021/01/15 12:39:00;;;;;;;6.53;3.47;;;18.80;83.40;;;;;;5289186;27;20411;-96
2021/01/15 12:41:51;;;;;;;4.22;1.90;;;19.00;83.10;;;;;;5295773;27;20005;-96
2021/01/15 12:44:27;;;;;;;7.10;6.40;;;18.90;82.20;;;;;;5291319;27;20027;-96
2021/01/15 12:47:07;;;;;;;3.90;2.53;;;18.30;81.30;;;;;;5291824;27;20021;-96
2021/01/15 12:49:40;;;;;;;9.90;7.75;;;18.80;82.70;;;;;;5295273;27;20021;-97
2021/01/15 12:52:27;;;;;;;6.35;5.18;;;18.60;79.80;;;;;;5318915;27;20045;-96
2021/01/15 12:55:26;;;;;;;5.70;4.62;;;18.80;79.40;;;;;;5287513;27;20074;-96
2021/01/15 12:58:01;;;;;;;8.43;2.60;;;18.80;79.50;;;;;;5287732;27;20492;-96
2021/01/15 13:00:50;;;;;;;;;;;;;;;;;;;;;
2021/01/15 13:04:16;;;;;;;6.25;4.43;;;19.70;77.90;;;;;;5319970;27;20033;-96
2021/01/15 13:06:45;;;;;;;5.70;5.30;;;19.60;76.80;;;;;;5288648;27;20383;-96
2021/01/15 13:09:20;;;;;;;8.80;3.62;;;18.90;79.30;;;;;;5274252;27;20392;-96
2021/01/15 13:12:22;;;;;;;;;;;;;;;;;;;;;
2021/01/15 13:15:15;;;;;;;7.90;6.20;;;19.90;78.50;;;;;;5317604;27;20054;-95
2021/01/15 13:17:52;;;;;;;13.38;12.43;;;19.10;77.60;;;;;;5290262;27;20077;-96
2021/01/15 13:20:43;;;;;;;7.22;6.60;;;19.20;78.50;;;;;;5297795;27;20013;-96
2021/01/15 13:23:27;;;;;;;5.28;3.95;;;19.00;78.10;;;;;;5293806;27;20064;-96
2021/01/15 13:26:10;;;;;;;4.55;2.97;;;19.60;77.80;;;;;;5288634;27;20437;-96
2021/01/15 13:28:45;;;;;;;6.37;1.98;;;19.70;77.00;;;;;;5292813;27;20031;-96
2021/01/15 13:35:25;;;;;;;3.90;3.33;;;18.50;79.20;;;;;;5305922;27;20060;-96
2021/01/15 13:38:42;;;;;;;7.55;2.58;;;18.00;81.20;;;;;;5306311;27;20064;-96
2021/01/15 13:41:48;;;;;;;5.25;4.75;;;18.10;80.20;;;;;;5299569;27;20044;-96
2021/01/15 13:44:25;;;;;;;6.53;5.45;;;18.00;79.20;;;;;;5317193;27;20041;-96
2021/01/15 13:47:24;;;;;;;6.45;2.35;;;18.40;79.30;;;;;;5298308;27;20039;-96
2021/01/15 13:51:05;;;;;;;4.07;2.85;;;18.80;79.90;;;;;;5297726;26;20035;-96
2021/01/15 13:53:53;;;;;;;5.82;5.18;;;18.70;78.50;;;;;;5299907;27;20044;-96
2021/01/15 13:56:52;;;;;;;4.43;2.05;;;18.50;79.50;;;;;;5319393;27;20051;-96
2021/01/15 14:00:16;;;;;;;7.78;4.03;;;18.30;80.50;;;;;;5259580;27;20060;-96
2021/01/15 14:03:09;;;;;;;5.37;2.22;;;18.90;78.80;;;;;;5239028;27;20038;-96
2021/01/15 14:05:50;;;;;;;5.70;2.72;;;19.20;77.90;;;;;;5252181;27;20018;-96
2021/01/15 14:08:35;;;;;;;7.40;2.55;;;18.70;79.70;;;;;;5226193;27;20068;-96
2021/01/15 14:11:16;;;;;;;5.30;4.80;;;18.60;84.80;;;;;;5252902;27;20030;-96
2021/01/15 14:13:44;;;;;;;7.03;4.00;;;18.50;86.00;;;;;;5255539;27;20176;-96
2021/01/15 14:16:19;;;;;;;9.65;2.42;;;18.40;87.00;;;;;;5253537;27;20064;-95
2021/01/15 14:18:50;;;;;;;10.23;3.15;;;18.30;86.20;;;;;;5252700;27;20026;-96
2021/01/15 14:21:21;;;;;;;5.50;3.65;;;18.50;85.30;;;;;;5254319;27;20037;-96
2021/01/15 14:23:55;;;;;;;4.10;2.08;;;18.70;85.30;;;;;;5253699;27;20060;-96
2021/01/15 14:26:24;;;;;;;5.37;3.15;;;18.50;83.70;;;;;;5252738;27;20041;-96
2021/01/15 14:28:56;;;;;;;5.18;4.68;;;18.50;82.50;;;;;;5253634;27;20066;-95
2021/01/15 14:31:42;;;;;;;6.80;3.67;;;18.20;80.80;;;;;;5288650;27;20033;-94
2021/01/15 14:34:15;;;;;;;5.22;2.83;;;18.40;81.90;;;;;;5284721;27;20017;-94
2021/01/15 14:36:44;;;;;;;6.60;2.28;;;18.10;81.60;;;;;;5283313;27;20017;-95
2021/01/15 14:39:15;;;;;;;4.18;1.62;;;17.90;81.80;;;;;;5284421;27;20365;-95
2021/01/15 14:41:45;;;;;;;4.25;1.35;;;17.80;82.60;;;;;;5283577;27;20687;-94
2021/01/15 14:44:18;;;;;;;5.82;2.50;;;17.60;82.20;;;;;;5299262;27;20021;-94
2021/01/15 14:46:47;;;;;;;7.97;3.20;;;17.60;83.40;;;;;;5301291;27;20057;-95
2021/01/15 14:49:20;;;;;;;6.50;2.70;;;17.90;82.80;;;;;;5284628;27;20033;-96
2021/01/15 14:51:48;;;;;;;4.72;2.30;;;18.30;82.30;;;;;;5284809;27;20021;-96
2021/01/15 14:54:22;;;;;;;4.68;3.55;;;18.50;82.50;;;;;;5302334;27;20036;-94
2021/01/15 14:57:13;;;;;;;5.85;1.83;;;18.50;83.20;;;;;;5293522;27;20051;-93
2021/01/15 14:59:42;;;;;;;3.53;1.75;;;18.40;83.30;;;;;;5293523;27;20075;-92
2021/01/15 15:02:24;;;;;;;4.07;3.37;;;18.10;85.50;;;;;;5289427;27;20414;-96